createdAt,value
2018-12-07T00:01:03.209Z,14.20
2018-12-07T00:03:30.831Z,13.93
2018-12-07T00:05:58.394Z,12.00
2018-12-07T00:08:25.880Z,10.00
2018-12-07T00:10:53.393Z,15.50
2018-12-07T00:13:20.933Z,13.07
2018-12-07T00:15:48.441Z,12.97
2018-12-07T00:18:15.961Z,14.53
2018-12-07T00:20:43.529Z,13.97
2018-12-07T00:23:11.009Z,8.97
2018-12-07T00:25:38.543Z,13.90
2018-12-07T00:28:06.101Z,10.43
2018-12-07T00:30:33.623Z,14.10
2018-12-07T00:33:01.184Z,14.30
2018-12-07T00:35:28.676Z,13.40
2018-12-07T00:37:56.326Z,12.17
2018-12-07T00:40:23.825Z,11.70
2018-12-07T00:42:51.310Z,12.50
2018-12-07T00:45:18.815Z,15.40
2018-12-07T00:47:46.337Z,14.07
2018-12-07T00:50:13.829Z,14.13
2018-12-07T00:52:41.313Z,15.33
2018-12-07T00:58:14.554Z,17.90
2018-12-07T01:00:42.122Z,14.30
2018-12-07T01:03:09.673Z,16.33
2018-12-07T01:05:37.242Z,13.90
2018-12-07T01:08:04.773Z,14.70
2018-12-07T01:10:33.461Z,19.83
2018-12-07T01:13:01.006Z,13.37
2018-12-07T01:15:28.557Z,17.83
2018-12-07T01:17:56.093Z,14.03
2018-12-07T01:20:23.732Z,12.50
2018-12-07T01:22:51.222Z,12.63
2018-12-07T01:25:18.718Z,12.80
2018-12-07T01:27:46.234Z,13.10
2018-12-07T01:30:13.790Z,10.77
2018-12-07T01:32:41.284Z,13.40
2018-12-07T01:35:08.769Z,14.93
2018-12-07T01:37:36.423Z,14.23
2018-12-07T01:40:05.607Z,13.83
2018-12-07T01:42:33.134Z,14.63
2018-12-07T01:45:00.645Z,12.87
2018-12-07T01:47:28.148Z,13.27
2018-12-07T01:49:55.648Z,11.90
2018-12-07T01:52:23.132Z,14.57
2018-12-07T01:54:50.642Z,17.23
2018-12-07T01:57:18.121Z,14.90
2018-12-07T01:59:45.626Z,11.97
2018-12-07T02:02:13.230Z,14.40
2018-12-07T02:04:40.962Z,12.10
2018-12-07T02:07:16.229Z,17.00
2018-12-07T02:09:43.738Z,13.13
2018-12-07T02:12:11.254Z,16.60
2018-12-07T02:14:38.766Z,15.87
2018-12-07T02:17:06.498Z,15.07
2018-12-07T02:19:34.023Z,16.10
2018-12-07T02:22:01.583Z,18.30
2018-12-07T02:24:29.091Z,13.03
2018-12-07T02:26:56.579Z,22.30
2018-12-07T02:29:24.143Z,13.57
2018-12-07T02:31:51.682Z,19.40
2018-12-07T02:34:19.172Z,17.33
2018-12-07T02:36:46.675Z,16.40
2018-12-07T02:39:14.182Z,15.83
2018-12-07T02:41:41.680Z,18.20
2018-12-07T02:44:09.233Z,12.87
2018-12-07T02:46:36.753Z,15.03
2018-12-07T02:49:04.284Z,17.37
2018-12-07T02:51:31.778Z,16.37
2018-12-07T02:53:59.353Z,14.70
2018-12-07T02:56:26.961Z,12.00
2018-12-07T02:58:54.445Z,13.10
2018-12-07T03:01:21.929Z,11.50
2018-12-07T03:03:49.489Z,17.23
2018-12-07T03:06:16.978Z,15.60
2018-12-07T03:08:44.474Z,16.37
2018-12-07T03:11:11.965Z,15.67
2018-12-07T03:13:39.530Z,14.53
2018-12-07T03:16:07.017Z,12.60
2018-12-07T03:18:34.574Z,20.10
2018-12-07T03:21:02.120Z,12.87
2018-12-07T03:23:29.621Z,13.80
2018-12-07T03:25:57.104Z,13.67
2018-12-07T03:28:24.604Z,12.00
2018-12-07T03:30:52.117Z,15.37
2018-12-07T03:33:19.659Z,14.20
2018-12-07T03:35:47.158Z,15.10
2018-12-07T03:38:14.838Z,15.60
2018-12-07T03:40:42.625Z,13.37
2018-12-07T03:43:10.164Z,15.23
2018-12-07T03:45:37.675Z,14.90
2018-12-07T03:48:05.164Z,13.80
2018-12-07T03:50:32.689Z,16.90
2018-12-07T03:53:00.177Z,11.63
2018-12-07T03:55:27.679Z,13.60
2018-12-07T03:57:55.186Z,13.03
2018-12-07T04:00:22.718Z,13.33
2018-12-07T04:02:50.221Z,17.17
2018-12-07T04:05:17.760Z,13.90
2018-12-07T04:07:45.376Z,21.17
2018-12-07T04:10:12.936Z,17.23
2018-12-07T04:12:40.417Z,11.90
2018-12-07T04:15:08.043Z,15.33
2018-12-07T04:17:35.568Z,12.57
2018-12-07T04:20:03.106Z,14.80
2018-12-07T04:22:30.613Z,15.80
2018-12-07T04:24:58.104Z,14.37
2018-12-07T04:27:25.648Z,13.27
2018-12-07T04:29:57.110Z,11.90
2018-12-07T04:32:24.590Z,19.03
2018-12-07T04:34:52.274Z,11.20
2018-12-07T04:37:19.761Z,14.73
2018-12-07T04:39:47.256Z,13.77
2018-12-07T04:42:14.874Z,10.73
2018-12-07T04:44:42.435Z,12.83
2018-12-07T04:47:09.913Z,12.10
2018-12-07T04:49:37.441Z,10.67
2018-12-07T04:52:04.924Z,10.60
2018-12-07T04:54:32.525Z,12.63
2018-12-07T04:57:00.190Z,10.43
2018-12-07T04:59:27.714Z,14.03
2018-12-07T05:01:55.308Z,10.17
2018-12-07T05:04:22.871Z,9.50
2018-12-07T05:06:50.398Z,9.70
2018-12-07T05:09:17.946Z,11.73
2018-12-07T05:11:45.439Z,11.57
2018-12-07T05:14:12.975Z,11.30
2018-12-07T05:16:40.529Z,11.37
2018-12-07T05:19:08.023Z,12.00
2018-12-07T05:21:35.567Z,10.77
2018-12-07T05:24:03.109Z,11.27
2018-12-07T05:26:30.603Z,12.37
2018-12-07T05:28:58.112Z,10.50
2018-12-07T05:31:25.602Z,13.80
2018-12-07T05:33:53.191Z,11.27
2018-12-07T05:36:20.677Z,10.17
2018-12-07T05:38:48.149Z,9.10
2018-12-07T05:41:15.700Z,10.50
2018-12-07T05:43:57.107Z,8.37
2018-12-07T05:46:24.608Z,9.73
2018-12-07T05:48:52.250Z,11.37
2018-12-07T05:51:19.781Z,11.10
2018-12-07T05:53:47.555Z,12.60
2018-12-07T05:56:15.045Z,10.40
2018-12-07T05:58:42.549Z,10.77
2018-12-07T06:01:10.123Z,10.23
2018-12-07T06:03:37.617Z,8.70
2018-12-07T06:06:05.121Z,11.80
2018-12-07T06:08:32.740Z,7.87
2018-12-07T06:11:00.228Z,12.00
2018-12-07T06:13:27.749Z,12.90
2018-12-07T06:15:55.292Z,11.90
2018-12-07T06:18:22.776Z,14.00
2018-12-07T06:20:50.310Z,12.97
2018-12-07T06:23:17.793Z,12.23
2018-12-07T06:25:45.290Z,12.50
2018-12-07T06:28:12.869Z,14.33
2018-12-07T06:30:40.347Z,14.40
2018-12-07T06:33:07.826Z,16.73
2018-12-07T06:35:36.264Z,14.00
2018-12-07T06:38:03.739Z,12.50
2018-12-07T06:40:31.227Z,15.20
2018-12-07T06:42:58.919Z,15.13
2018-12-07T06:45:26.452Z,17.03
2018-12-07T06:47:53.937Z,15.60
2018-12-07T06:50:21.576Z,17.97
2018-12-07T06:52:49.293Z,14.80
2018-12-07T06:55:17.015Z,12.93
2018-12-07T06:57:44.649Z,14.30
2018-12-07T07:00:12.142Z,14.20
2018-12-07T07:02:39.627Z,16.67
2018-12-07T07:05:07.794Z,13.17
2018-12-07T07:07:35.328Z,17.70
2018-12-07T07:10:02.802Z,15.67
2018-12-07T07:12:30.438Z,13.07
2018-12-07T07:14:57.997Z,15.23
2018-12-07T07:17:25.536Z,11.20
2018-12-07T07:19:53.041Z,18.83
2018-12-07T07:22:20.524Z,14.60
2018-12-07T07:27:21.749Z,14.20
2018-12-07T07:29:49.281Z,9.00
2018-12-07T07:32:16.779Z,12.50
2018-12-07T07:34:44.273Z,10.53
2018-12-07T07:37:11.828Z,12.20
2018-12-07T07:39:39.392Z,8.10
2018-12-07T07:42:06.888Z,10.00
2018-12-07T07:44:34.446Z,9.40
2018-12-07T07:47:02.082Z,7.73
2018-12-07T07:49:29.564Z,10.23
2018-12-07T07:51:57.103Z,8.97
2018-12-07T07:54:24.598Z,9.47
2018-12-07T07:56:52.075Z,7.20
2018-12-07T07:59:19.616Z,10.50
2018-12-07T08:01:47.093Z,8.87
2018-12-07T08:04:14.742Z,8.37
2018-12-07T08:06:42.244Z,10.50
2018-12-07T08:09:09.888Z,9.30
2018-12-07T08:11:37.372Z,8.93
2018-12-07T08:14:04.899Z,9.03
2018-12-07T08:16:32.445Z,12.10
2018-12-07T08:18:59.930Z,7.20
2018-12-07T08:21:27.438Z,7.43
2018-12-07T08:23:54.949Z,7.60
2018-12-07T08:26:22.507Z,6.90
2018-12-07T08:28:49.986Z,7.37
2018-12-07T08:31:17.502Z,9.03
2018-12-07T08:33:45.002Z,8.20
2018-12-07T08:36:12.576Z,7.53
2018-12-07T08:38:40.053Z,7.53
2018-12-07T08:41:07.549Z,7.70
2018-12-07T08:43:35.043Z,7.30
2018-12-07T08:46:02.527Z,5.33
2018-12-07T08:48:30.135Z,7.80
2018-12-07T08:50:57.654Z,7.50
2018-12-07T08:53:25.136Z,5.90
2018-12-07T08:55:52.749Z,5.30
2018-12-07T08:58:20.267Z,5.20
2018-12-07T09:00:47.810Z,4.70
2018-12-07T09:03:15.362Z,4.00
2018-12-07T09:05:42.879Z,4.07
2018-12-07T09:08:15.223Z,4.50
2018-12-07T09:10:40.030Z,4.80
2018-12-07T09:13:07.513Z,3.90
2018-12-07T09:15:36.273Z,4.80
2018-12-07T09:18:03.765Z,3.43
2018-12-07T09:20:31.248Z,3.40
2018-12-07T09:22:58.793Z,3.23
2018-12-07T09:25:26.333Z,3.50
2018-12-07T09:27:53.877Z,2.87
2018-12-07T09:30:21.482Z,3.63
2018-12-07T09:32:48.994Z,3.50
2018-12-07T09:35:16.497Z,4.30
2018-12-07T09:37:44.101Z,3.87
2018-12-07T09:40:11.593Z,4.60
2018-12-07T09:42:39.081Z,3.40
2018-12-07T09:45:06.679Z,3.60
2018-12-07T09:47:34.183Z,4.33
2018-12-07T09:50:01.699Z,4.83
2018-12-07T09:52:29.239Z,5.57
2018-12-07T09:54:56.722Z,4.47
2018-12-07T09:57:24.278Z,5.33
2018-12-07T09:59:51.792Z,6.20
2018-12-07T10:02:19.333Z,5.00
2018-12-07T10:04:46.857Z,4.37
2018-12-07T10:07:14.373Z,6.13
2018-12-07T10:09:41.906Z,5.57
2018-12-07T10:12:09.425Z,4.93
2018-12-07T10:14:36.943Z,5.20
2018-12-07T10:19:38.179Z,5.63
2018-12-07T10:22:05.697Z,3.63
2018-12-07T10:24:33.259Z,4.70
2018-12-07T10:27:04.537Z,3.50
2018-12-07T10:29:32.066Z,3.90
2018-12-07T10:31:59.602Z,5.23
2018-12-07T10:34:27.130Z,5.00
2018-12-07T10:36:54.744Z,6.53
2018-12-07T10:39:22.282Z,8.40
2018-12-07T10:41:49.771Z,6.40
2018-12-07T10:44:17.293Z,4.27
2018-12-07T10:46:44.884Z,5.27
2018-12-07T10:49:12.419Z,4.67
2018-12-07T10:51:39.913Z,5.23
2018-12-07T10:54:07.413Z,6.73
2018-12-07T10:56:34.946Z,4.57
2018-12-07T10:59:02.441Z,4.43
2018-12-07T11:01:35.579Z,4.60
2018-12-07T11:04:08.901Z,4.50
2018-12-07T11:06:42.020Z,4.90
2018-12-07T11:09:15.225Z,8.50
2018-12-07T11:11:44.937Z,4.93
2018-12-07T11:14:12.511Z,7.47
2018-12-07T11:16:45.700Z,5.40
2018-12-07T11:19:18.953Z,5.77
2018-12-07T11:24:59.903Z,6.00
2018-12-07T11:27:33.470Z,5.40
2018-12-07T11:30:03.924Z,10.63
2018-12-07T11:32:32.628Z,6.20
2018-12-07T11:35:02.155Z,5.17
2018-12-07T11:37:29.633Z,5.20
2018-12-07T11:39:57.136Z,6.17
2018-12-07T11:42:24.606Z,6.30
2018-12-07T11:44:52.191Z,5.93
2018-12-07T11:47:19.887Z,8.30
2018-12-07T11:49:47.361Z,6.03
2018-12-07T11:52:14.895Z,5.27
2018-12-07T11:54:42.416Z,7.83
2018-12-07T11:57:09.895Z,8.47
2018-12-07T11:59:37.390Z,6.50
2018-12-07T12:02:05.000Z,6.43
2018-12-07T12:04:32.572Z,6.53
2018-12-07T12:07:00.096Z,6.40
2018-12-07T12:09:27.651Z,11.80
2018-12-07T12:11:55.127Z,6.43
2018-12-07T12:14:22.650Z,5.60
2018-12-07T12:16:50.191Z,6.57
2018-12-07T12:19:17.707Z,7.20
2018-12-07T12:21:45.237Z,13.40
2018-12-07T12:24:12.712Z,10.23
2018-12-07T12:26:40.232Z,10.63
2018-12-07T12:29:07.732Z,6.60
2018-12-07T12:31:35.266Z,7.20
2018-12-07T12:34:02.932Z,7.27
2018-12-07T12:36:30.459Z,8.00
2018-12-07T12:38:57.946Z,7.60
2018-12-07T12:41:25.442Z,8.47
2018-12-07T12:43:53.062Z,9.77
2018-12-07T12:46:20.591Z,8.23
2018-12-07T12:48:48.069Z,7.77
2018-12-07T12:51:15.637Z,8.90
2018-12-07T12:53:43.113Z,8.73
2018-12-07T12:56:10.642Z,7.90
2018-12-07T12:58:38.188Z,7.00
2018-12-07T13:01:05.662Z,6.60
2018-12-07T13:03:33.239Z,6.50
2018-12-07T13:06:00.737Z,10.07
2018-12-07T13:08:28.218Z,10.63
2018-12-07T13:10:55.788Z,9.13
2018-12-07T13:13:23.270Z,6.00
2018-12-07T13:15:50.749Z,12.00
2018-12-07T13:18:18.395Z,5.30
2018-12-07T13:20:45.880Z,5.03
2018-12-07T13:23:13.400Z,5.07
2018-12-07T13:25:40.953Z,7.90
2018-12-07T13:28:08.557Z,7.10
2018-12-07T13:30:36.043Z,7.03
2018-12-07T13:33:03.525Z,5.50
2018-12-07T13:35:31.474Z,5.57
2018-12-07T13:37:58.958Z,13.83
2018-12-07T13:40:26.536Z,4.63
2018-12-07T13:42:54.167Z,14.10
2018-12-07T13:45:21.864Z,6.53
2018-12-07T13:47:49.732Z,4.80
2018-12-07T13:50:23.334Z,40.40
2018-12-07T13:52:51.146Z,22.37
2018-12-07T13:55:18.812Z,8.27
2018-12-07T13:57:46.453Z,8.60
2018-12-07T14:00:14.092Z,6.20
2018-12-07T14:02:42.033Z,13.87
2018-12-07T14:05:09.659Z,7.20
2018-12-07T14:07:37.214Z,8.23
2018-12-07T14:10:05.700Z,7.17
2018-12-07T14:12:33.246Z,4.97
2018-12-07T14:15:00.722Z,5.40
2018-12-07T14:17:28.249Z,5.90
2018-12-07T14:19:56.149Z,3.67
2018-12-07T14:22:23.906Z,4.10
2018-12-07T14:24:51.624Z,4.20
2018-12-07T14:27:19.302Z,3.70
2018-12-07T14:29:47.139Z,6.70
2018-12-07T14:32:14.747Z,3.50
2018-12-07T14:34:42.330Z,4.17
2018-12-07T14:37:10.068Z,7.30
2018-12-07T14:39:38.478Z,4.30
2018-12-07T14:42:06.285Z,3.23
2018-12-07T14:44:34.096Z,3.33
2018-12-07T14:47:01.769Z,3.90
2018-12-07T14:49:29.394Z,5.73
2018-12-07T14:51:57.062Z,9.77
2018-12-07T14:54:24.887Z,3.07
2018-12-07T14:56:52.504Z,4.20
2018-12-07T14:59:20.087Z,3.17
2018-12-07T15:01:47.922Z,3.43
2018-12-07T15:04:15.650Z,3.90
2018-12-07T15:06:43.282Z,9.40
2018-12-07T15:09:10.897Z,4.37
2018-12-07T15:11:38.643Z,4.10
2018-12-07T15:14:06.190Z,4.70
2018-12-07T15:16:34.164Z,4.47
2018-12-07T15:19:01.881Z,4.40
2018-12-07T15:21:29.519Z,4.20
2018-12-07T15:23:57.331Z,4.23
2018-12-07T15:26:25.135Z,5.03
2018-12-07T15:28:52.907Z,3.60
2018-12-07T15:31:20.751Z,4.47
2018-12-07T15:33:48.763Z,3.10
2018-12-07T15:36:16.286Z,6.37
2018-12-07T15:38:43.956Z,9.60
2018-12-07T15:41:11.564Z,8.00
2018-12-07T15:43:39.149Z,5.53
2018-12-07T15:46:06.765Z,5.57
2018-12-07T15:48:34.397Z,11.60
2018-12-07T15:51:02.893Z,6.10
2018-12-07T15:53:30.582Z,4.27
2018-12-07T15:56:00.368Z,4.13
2018-12-07T15:58:28.284Z,6.43
2018-12-07T16:00:56.161Z,4.70
2018-12-07T16:03:23.741Z,5.23
2018-12-07T16:05:51.632Z,5.87
2018-12-07T16:08:24.869Z,5.03
2018-12-07T16:10:49.617Z,8.53
2018-12-07T16:13:17.350Z,13.07
2018-12-07T16:15:45.337Z,8.53
2018-12-07T16:18:13.067Z,4.60
2018-12-07T16:20:40.816Z,4.73
2018-12-07T16:23:08.569Z,5.30
2018-12-07T16:25:36.130Z,5.03
2018-12-07T16:28:03.711Z,5.53
2018-12-07T16:30:31.314Z,4.40
2018-12-07T16:32:59.189Z,6.53
2018-12-07T16:35:26.704Z,4.30
2018-12-07T16:37:54.455Z,4.20
2018-12-07T16:40:22.222Z,4.00
2018-12-07T16:42:49.860Z,4.70
2018-12-07T16:45:17.443Z,4.90
2018-12-07T16:47:44.928Z,7.33
2018-12-07T16:50:12.768Z,20.90
2018-12-07T16:52:40.300Z,7.73
2018-12-07T16:55:07.907Z,6.27
2018-12-07T16:57:35.619Z,3.73
2018-12-07T17:00:03.298Z,4.50
2018-12-07T17:02:31.074Z,5.03
2018-12-07T17:04:58.639Z,9.27
2018-12-07T17:07:26.375Z,4.00
2018-12-07T17:09:54.066Z,9.27
2018-12-07T17:12:21.807Z,7.97
2018-12-07T17:14:49.497Z,7.47
2018-12-07T17:17:17.250Z,4.97
2018-12-07T17:19:44.972Z,2.80
2018-12-07T17:22:12.595Z,7.37
2018-12-07T17:24:40.240Z,3.30
2018-12-07T17:27:07.729Z,1.93
2018-12-07T17:29:35.202Z,1.97
2018-12-07T17:32:02.981Z,6.83
2018-12-07T17:34:30.720Z,9.77
2018-12-07T17:36:58.522Z,8.40
2018-12-07T17:39:26.142Z,4.37
2018-12-07T17:41:53.645Z,2.83
2018-12-07T17:44:21.441Z,6.47
2018-12-07T17:46:48.946Z,2.90
2018-12-07T17:49:17.007Z,6.50
2018-12-07T17:51:44.598Z,4.70
2018-12-07T17:54:12.177Z,4.40
2018-12-07T17:56:39.920Z,8.13
2018-12-07T17:59:07.586Z,6.70
2018-12-07T18:01:35.073Z,2.47
2018-12-07T18:04:02.608Z,7.10
2018-12-07T18:06:30.686Z,10.10
2018-12-07T18:08:58.416Z,2.73
2018-12-07T18:11:26.001Z,3.60
2018-12-07T18:13:53.882Z,5.17
2018-12-07T18:16:21.460Z,4.10
2018-12-07T18:18:49.187Z,4.10
2018-12-07T18:21:16.824Z,2.17
2018-12-07T18:23:44.399Z,6.33
2018-12-07T18:26:11.960Z,4.10
2018-12-07T18:28:39.878Z,6.83
2018-12-07T18:31:07.687Z,3.70
2018-12-07T18:33:35.210Z,3.50
2018-12-07T18:36:02.876Z,2.37
2018-12-07T18:38:30.542Z,5.00
2018-12-07T18:40:58.328Z,4.13
2018-12-07T18:43:25.927Z,6.03
2018-12-07T18:45:53.750Z,5.60
2018-12-07T18:48:21.599Z,5.63
2018-12-07T18:50:49.448Z,2.93
2018-12-07T18:53:17.255Z,2.97
2018-12-07T18:55:44.832Z,11.50
2018-12-07T18:58:12.669Z,5.67
2018-12-07T19:00:40.648Z,3.20
2018-12-07T19:03:08.392Z,9.17
2018-12-07T19:05:36.120Z,12.67
2018-12-07T19:08:03.752Z,6.40
2018-12-07T19:10:31.457Z,9.03
2018-12-07T19:13:00.476Z,14.47
2018-12-07T19:15:28.284Z,6.60
2018-12-07T19:17:55.980Z,11.37
2018-12-07T19:20:23.942Z,4.70
2018-12-07T19:22:51.704Z,13.07
2018-12-07T19:25:19.511Z,10.53
2018-12-07T19:27:47.362Z,7.60
2018-12-07T19:30:15.447Z,5.03
2018-12-07T19:32:43.468Z,8.83
2018-12-07T19:35:11.022Z,14.33
2018-12-07T19:37:38.692Z,7.60
2018-12-07T19:40:06.560Z,6.43
2018-12-07T19:42:34.583Z,9.03
2018-12-07T19:45:02.585Z,5.73
2018-12-07T19:47:30.249Z,13.47
2018-12-07T19:49:57.825Z,9.63
2018-12-07T19:52:25.857Z,7.23
2018-12-07T19:54:53.369Z,9.30
2018-12-07T19:57:21.128Z,12.30
2018-12-07T19:59:48.874Z,17.33
2018-12-07T20:02:16.635Z,9.60
2018-12-07T20:04:44.449Z,9.17
2018-12-07T20:07:11.970Z,18.80
2018-12-07T20:09:39.454Z,12.17
2018-12-07T20:12:07.200Z,13.10
2018-12-07T20:14:35.688Z,13.10
2018-12-07T20:17:03.436Z,13.60
2018-12-07T20:19:31.032Z,10.70
2018-12-07T20:21:58.841Z,10.43
2018-12-07T20:24:26.679Z,9.30
2018-12-07T20:26:54.393Z,13.23
2018-12-07T20:29:21.990Z,6.00
2018-12-07T20:31:49.584Z,6.57
2018-12-07T20:34:17.171Z,12.47
2018-12-07T20:36:44.763Z,18.30
2018-12-07T20:39:12.662Z,11.20
2018-12-07T20:41:40.438Z,20.70
2018-12-07T20:44:08.751Z,16.03
2018-12-07T20:46:37.294Z,10.40
2018-12-07T20:49:05.684Z,14.13
2018-12-07T20:51:34.249Z,10.90
2018-12-07T20:54:03.211Z,9.37
2018-12-07T20:56:31.594Z,8.20
2018-12-07T20:59:00.192Z,24.73
2018-12-07T21:01:28.951Z,9.20
2018-12-07T21:04:24.928Z,25.93
2018-12-07T21:13:49.031Z,17.10
2018-12-07T21:16:33.545Z,20.63
2018-12-07T21:19:01.345Z,12.13
2018-12-07T21:21:29.002Z,16.90
2018-12-07T21:23:56.817Z,18.30
2018-12-07T21:26:24.896Z,12.63
2018-12-07T21:28:52.783Z,11.87
2018-12-07T21:31:20.573Z,6.37
2018-12-07T21:33:50.884Z,11.60
2018-12-07T21:36:33.606Z,17.83
2018-12-07T21:39:01.223Z,7.90
2018-12-07T21:41:28.784Z,20.27
2018-12-07T21:43:56.742Z,14.90
2018-12-07T21:46:24.365Z,6.13
2018-12-07T21:48:52.250Z,12.13
2018-12-07T21:51:24.501Z,13.40
2018-12-07T21:53:52.167Z,11.53
2018-12-07T21:56:19.851Z,22.50
2018-12-07T21:58:47.479Z,9.73
2018-12-07T22:01:15.082Z,7.70
2018-12-07T22:03:42.675Z,19.60
2018-12-07T22:06:10.562Z,13.27
2018-12-07T22:08:38.207Z,10.70
2018-12-07T22:11:06.426Z,20.07
2018-12-07T22:13:34.367Z,11.70
2018-12-07T22:16:01.868Z,13.50
2018-12-07T22:18:29.620Z,12.00
2018-12-07T22:20:57.545Z,15.20
2018-12-07T22:23:25.603Z,8.50
2018-12-07T22:25:53.549Z,9.70
2018-12-07T22:28:21.426Z,11.23
2018-12-07T22:30:48.935Z,7.23
2018-12-07T22:33:16.746Z,8.10
2018-12-07T22:35:44.496Z,8.03
2018-12-07T22:38:12.308Z,4.03
2018-12-07T22:40:40.182Z,10.00
2018-12-07T22:43:07.739Z,6.77
2018-12-07T22:45:35.869Z,11.73
2018-12-07T22:48:03.627Z,7.70
2018-12-07T22:50:31.164Z,6.10
2018-12-07T22:52:58.654Z,7.90
2018-12-07T22:55:26.185Z,18.27
2018-12-07T22:57:53.701Z,9.73
2018-12-07T23:00:22.336Z,14.33
2018-12-07T23:02:49.821Z,14.43
2018-12-07T23:05:17.325Z,22.43
2018-12-07T23:07:44.817Z,8.23
2018-12-07T23:10:12.347Z,7.77
2018-12-07T23:12:40.991Z,14.33
2018-12-07T23:15:09.053Z,9.63
2018-12-07T23:17:36.554Z,13.13
2018-12-07T23:20:05.206Z,18.73
2018-12-07T23:22:32.971Z,13.27
2018-12-07T23:25:01.268Z,17.67
2018-12-07T23:27:28.804Z,21.20
2018-12-07T23:29:56.361Z,19.13
2018-12-07T23:32:23.918Z,13.13
2018-12-07T23:34:51.427Z,22.83
2018-12-07T23:37:18.903Z,18.27
2018-12-07T23:39:46.561Z,8.03
2018-12-07T23:42:14.113Z,10.60
2018-12-07T23:44:41.589Z,8.53
2018-12-07T23:47:09.159Z,12.10
2018-12-07T23:49:36.652Z,12.93
2018-12-07T23:52:04.167Z,12.47
2018-12-07T23:54:31.720Z,13.67
2018-12-07T23:56:59.201Z,17.70
2018-12-07T23:59:26.684Z,9.33
